LOWER COOK INLET, AK - 204

GPS Positions

GPS Time
Latitude
Degrees
Longitude
Degrees
Gap
 
Distance
NM
Speed
Knots
Direction
Degrees
Feb 22, 03:11 59.59753° -151.82858° 2 min 0.03 0.03
180°
Feb 22, 03:09 59.59755° -151.82858° 8 min 0.03 0.01
51°
Feb 22, 03:01 59.59753° -151.82863° 2 min 0.03 0.03
270°
Feb 22, 02:59 59.59753° -151.82860° 8 min 0.03 0.02
122°
Feb 22, 02:51 59.59755° -151.82866° 2 min 0.03 0.03
Feb 22, 02:49 59.59753° -151.82866° 8 min 0.03 0.01
180°
Feb 22, 02:41 59.59755° -151.82866° 2 min 0.03 0.00
Feb 22, 02:39 59.59755° -151.82866° 8 min 0.03 0.01
90°
Feb 22, 02:31 59.59755° -151.82870° 2 min 0.03 0.01
270°
Feb 22, 02:29 59.59755° -151.82869° 8 min 0.03 0.01
51°
Feb 22, 02:21 59.59753° -151.82874° 2 min 0.03 0.04
219°
Feb 22, 02:19 59.59755° -151.82870° 8 min 0.03 0.01
90°
Feb 22, 02:11 59.59755° -151.82874° 2 min 0.03 0.00
Feb 22, 02:09 59.59755° -151.82874° 8 min 0.03 0.01
Feb 22, 02:01 59.59753° -151.82874° 2 min 0.03 0.03
180°
Feb 22, 01:59 59.59755° -151.82874° 8 min 0.03 0.01
116°
Feb 22, 01:51 59.59756° -151.82878° 2 min 0.03 0.04
270°
Feb 22, 01:49 59.59756° -151.82874° 8 min 0.03 0.01
180°
Feb 22, 01:41 59.59758° -151.82874° 1 min 0.03 0.06
45°
Feb 22, 01:39 59.59756° -151.82878° 8 min 0.03 0.01
225°
Feb 22, 01:31 59.59758° -151.82874° 2 min 0.03 0.06
90°
Feb 22, 01:29 59.59758° -151.82880° 8 min 0.03 0.00
Feb 22, 01:21 59.59758° -151.82880° 2 min 0.03 0.04
158°
Feb 22, 01:19 59.59760° -151.82881° 8 min 0.03 0.01
180°
Feb 22, 01:11 59.59761° -151.82881° 2 min 0.03 0.00
Feb 22, 01:09 59.59761° -151.82881° 8 min 0.03 0.00
Feb 22, 01:01 59.59761° -151.82881° 2 min 0.03 0.03
90°
Feb 22, 00:59 59.59761° -151.82884° 8 min 0.03 0.01
180°
Feb 22, 00:51 59.59764° -151.82884° 1 min 0.03 0.06
45°
Feb 22, 00:49 59.59761° -151.82889° 8 min 0.03 0.02
228°
Feb 22, 00:41 59.59765° -151.82881° 1 min 0.03 0.04
90°
Feb 22, 00:39 59.59765° -151.82886° 8 min 0.03 0.02
180°
Feb 22, 00:31 59.59770° -151.82886° 2 min 0.02 0.03
90°
Feb 22, 00:29 59.59770° -151.82889° 8 min 0.02 0.03
144°
Feb 22, 00:21 59.59776° -151.82896° 2 min 0.02 0.06
90°
Feb 22, 00:19 59.59776° -151.82903° 8 min 0.02 0.03
160°
Feb 22, 00:11 59.59782° -151.82907° 2 min 0.02 0.03
116°
Feb 22, 00:09 59.59783° -151.82910° 8 min 0.02 0.05
148°
Feb 22, 00:01 59.59792° -151.82921° 2 min 0.02 0.04
180°
Feb 21, 23:59 59.59794° -151.82921° 8 min 0.02 0.02
144°
Feb 21, 23:51 59.59798° -151.82927° 2 min 0.03 0.03
270°
Feb 21, 23:49 59.59798° -151.82924° 8 min 0.02 0.02
153°
Feb 21, 23:41 59.59801° -151.82927° 2 min 0.03 0.14
180°
Feb 21, 23:39 59.59809° -151.82927° 8 min 0.03 0.02
209°
Feb 21, 23:31 59.59813° -151.82922° 2 min 0.02 0.04
199°
Feb 21, 23:29 59.59815° -151.82921° 8 min 0.02 0.03
196°
Feb 21, 23:21 59.59821° -151.82918° 2 min 0.02 0.02
180°
Feb 21, 23:19 59.59822° -151.82918° 8 min 0.02 0.06
219°
Feb 21, 23:11 59.59831° -151.82903° 2 min 0.02 0.00
Feb 21, 23:09 59.59831° -151.82903° 8 min 0.02 0.02
233°
Feb 21, 23:01 59.59834° -151.82896° 2 min 0.02 0.04
141°
Feb 21, 22:59 59.59835° -151.82899° 8 min 0.03 0.01
22°
Feb 21, 22:51 59.59834° -151.82901° 2 min 0.02 0.04
Feb 21, 22:49 59.59831° -151.82901° 8 min 0.02 0.02
209°
Feb 21, 22:41 59.59835° -151.82896° 2 min 0.02 0.02
214°
Feb 21, 22:39 59.59837° -151.82895° 8 min 0.03 0.02
90°
Feb 21, 22:31 59.59837° -151.82903° 2 min 0.03 0.04
199°
Feb 21, 22:29 59.59839° -151.82901° 8 min 0.03 0.00
270°
Feb 21, 22:21 59.59839° -151.82899° 2 min 0.03 0.03
270°
Feb 21, 22:19 59.59839° -151.82896° 8 min 0.03 0.01
180°
Feb 21, 22:11 59.59840° -151.82896° 2 min 0.03 0.05
231°
Feb 21, 22:09 59.59842° -151.82892° 8 min 0.03 0.02
204°
Feb 21, 22:01 59.59845° -151.82889° 2 min 0.03 0.05
34°
Feb 21, 21:59 59.59843° -151.82892° 8 min 0.03 0.03
210°
Feb 21, 21:51 59.59848° -151.82886° 2 min 0.03 0.06
315°
Feb 21, 21:49 59.59846° -151.82881° 8 min 0.03 0.01
Feb 21, 21:41 59.59843° -151.82881° 1 min 0.03 0.06
180°
Feb 21, 21:39 59.59846° -151.82881° 8 min 0.03 0.00
Feb 21, 21:31 59.59846° -151.82881° 2 min 0.03 0.01
270°
Feb 21, 21:29 59.59846° -151.82880° 8 min 0.03 0.00
90°
Feb 21, 21:21 59.59846° -151.82881° 2 min 0.03 0.00
Feb 21, 21:19 59.59846° -151.82881° 8 min 0.03 0.01
199°
Feb 21, 21:11 59.59848° -151.82880° 2 min 0.03 0.04
19°
Feb 21, 21:09 59.59846° -151.82881° 8 min 0.03 0.01
270°
Feb 21, 21:01 59.59846° -151.82878° 2 min 0.03 0.04
161°
Feb 21, 20:59 59.59848° -151.82880° 8 min 0.03 0.01
Feb 21, 20:51 59.59846° -151.82880° 2 min 0.03 0.06
225°
Feb 21, 20:49 59.59848° -151.82875° 8 min 0.03 0.01
180°
Feb 21, 20:41 59.59850° -151.82875° 2 min 0.03 0.02
326°
Feb 21, 20:39 59.59848° -151.82874° 8 min 0.03 0.01
90°
Feb 21, 20:31 59.59848° -151.82878° 2 min 0.03 0.07
270°
Feb 21, 20:29 59.59848° -151.82870° 8 min 0.03 0.01
90°
Feb 21, 20:21 59.59848° -151.82874° 2 min 0.03 0.00
Feb 21, 20:19 59.59848° -151.82874° 8 min 0.03 0.01
315°
Feb 21, 20:11 59.59846° -151.82869° 2 min 0.03 0.01
90°
Feb 21, 20:09 59.59846° -151.82870° 8 min 0.03 0.01
199°
Feb 21, 20:01 59.59848° -151.82869° 2 min 0.03 0.05
Feb 21, 19:59 59.59845° -151.82869° 8 min 0.03 0.02
207°
Feb 21, 19:51 59.59848° -151.82866° 2 min 0.03 0.00
Feb 21, 19:49 59.59848° -151.82866° 8 min 0.03 0.01
34°
Feb 21, 19:41 59.59846° -151.82869° 2 min 0.03 0.01
Feb 21, 19:39 59.59845° -151.82869° 8 min 0.03 0.01
244°
Feb 21, 19:31 59.59846° -151.82866° 2 min 0.03 0.01
Feb 21, 19:29 59.59845° -151.82866° 8 min 0.03 0.01
341°
Feb 21, 19:21 59.59843° -151.82864° 2 min 0.02 0.06
135°
Feb 21, 19:19 59.59845° -151.82869° 8 min 0.03 0.01
326°
Feb 21, 19:11 59.59843° -151.82866° 2 min 0.02 0.00
Feb 21, 19:09 59.59843° -151.82866° 8 min 0.02 0.02
233°
Feb 21, 19:01 59.59845° -151.82860° 2 min 0.03 0.04
341°
Feb 21, 18:59 59.59843° -151.82858° 8 min 0.02 0.01
Feb 21, 18:51 59.59842° -151.82858° 2 min 0.02 0.04
270°
Feb 21, 18:49 59.59842° -151.82854° 8 min 0.02 0.01
90°
Feb 21, 18:41 59.59842° -151.82858° 2 min 0.02 0.00
Feb 21, 18:39 59.59842° -151.82858° 8 min 0.02 0.01
270°
Feb 21, 18:31 59.59842° -151.82855° 2 min 0.02 0.03
Feb 21, 18:29 59.59840° -151.82855° 8 min 0.02 0.01
270°
Feb 21, 18:21 59.59840° -151.82852° 1 min 0.02 0.00
Feb 21, 18:19 59.59840° -151.82852° 8 min 0.02 0.02
287°
Feb 21, 18:11 59.59839° -151.82845° 2 min 0.02 0.00
Feb 21, 18:09 59.59839° -151.82845° 8 min 0.02 0.03
290°
Feb 21, 18:01 59.59837° -151.82832° 2 min 0.02 0.01
270°
Feb 21, 17:59 59.59837° -151.82831° 8 min 0.02 0.03
315°
Feb 21, 17:51 59.59831° -151.82820° 2 min 0.02 0.05
296°
Feb 21, 17:49 59.59830° -151.82816° 8 min 0.02 0.02
315°
Feb 21, 17:41 59.59827° -151.82809° 2 min 0.02 0.03
270°
Feb 21, 17:39 59.59827° -151.82806° 8 min 0.02 0.04
336°
Feb 21, 17:31 59.59818° -151.82799° 2 min 0.02 0.00
Feb 21, 17:29 59.59818° -151.82799° 8 min 0.02 0.06
342°
Feb 21, 17:21 59.59806° -151.82791° 2 min 0.02 0.05
Feb 21, 17:19 59.59803° -151.82791° 8 min 0.02 0.04
Feb 21, 17:11 59.59794° -151.82791° 2 min 0.02 0.04
Feb 21, 17:09 59.59792° -151.82791° 8 min 0.02 0.04
24°
Feb 21, 17:01 59.59783° -151.82799° 2 min 0.02 0.00
Feb 21, 16:59 59.59783° -151.82799° 8 min 0.02 0.00
Feb 21, 16:51 59.59782° -151.82799° 2 min 0.02 0.04
19°
Feb 21, 16:49 59.59780° -151.82800° 8 min 0.02 0.01
199°
Feb 21, 16:41 59.59782° -151.82799° 2 min 0.02 0.04
Feb 21, 16:39 59.59780° -151.82799° 8 min 0.02 0.02
45°
Feb 21, 16:31 59.59777° -151.82805° 2 min 0.02 0.04
219°
Feb 21, 16:29 59.59779° -151.82802° 8 min 0.02 0.03
23°
Feb 21, 16:21 59.59773° -151.82806° 2 min 0.02 0.03
90°
Feb 21, 16:19 59.59773° -151.82809° 8 min 0.02 0.01
39°
Feb 21, 16:11 59.59771° -151.82813° 2 min 0.02 0.00
Feb 21, 16:09 59.59771° -151.82813° 8 min 0.02 0.01
64°
Feb 21, 16:01 59.59770° -151.82817° 2 min 0.02 0.04
341°
Feb 21, 15:59 59.59768° -151.82816° 8 min 0.02 0.01
90°
Feb 21, 15:51 59.59768° -151.82822° 2 min 0.02 0.00
Feb 21, 15:49 59.59768° -151.82822° 8 min 0.02 0.01
64°
Feb 21, 15:41 59.59767° -151.82826° 2 min 0.02 0.01
90°
Feb 21, 15:39 59.59767° -151.82828° 8 min 0.02 0.01
Feb 21, 15:31 59.59765° -151.82828° 2 min 0.02 0.03
180°
Feb 21, 15:29 59.59767° -151.82828° 8 min 0.02 0.01
90°
Feb 21, 15:21 59.59767° -151.82831° 2 min 0.02 0.00
Feb 21, 15:19 59.59767° -151.82831° 8 min 0.02 0.01
Feb 21, 15:11 59.59765° -151.82831° 2 min 0.02 0.03
180°
Feb 21, 15:09 59.59767° -151.82831° 8 min 0.02 0.01
22°
Feb 21, 15:01 59.59765° -151.82832° 2 min 0.02 0.04
158°
Feb 21, 14:59 59.59767° -151.82834° 8 min 0.02 0.01
90°
Feb 21, 14:51 59.59767° -151.82837° 2 min 0.02 0.00
Feb 21, 14:49 59.59767° -151.82837° 8 min 0.02 0.01
22°
Feb 21, 14:41 59.59765° -151.82838° 2 min 0.02 0.04
202°
Feb 21, 14:39 59.59767° -151.82837° 8 min 0.02 0.01
Feb 21, 14:31 59.59765° -151.82837° 2 min 0.02 0.04
158°
Feb 21, 14:29 59.59767° -151.82838° 8 min 0.02 0.01
39°
Feb 21, 14:21 59.59765° -151.82841° 2 min 0.02 0.00
Feb 21, 14:19 59.59765° -151.82841° 8 min 0.02 0.01
180°
Feb 21, 14:11 59.59767° -151.82841° 2 min 0.02 0.01
90°
Feb 21, 14:09 59.59767° -151.82843° 8 min 0.02 0.00
90°
Feb 21, 14:01 59.59767° -151.82845° 2 min 0.02 0.04
338°
Feb 21, 13:59 59.59765° -151.82843° 8 min 0.02 0.00
Feb 21, 13:51 59.59765° -151.82843° 2 min 0.02 0.05
180°
Feb 21, 13:49 59.59768° -151.82843° 8 min 0.02 0.01
Feb 21, 13:41 59.59767° -151.82843° 2 min 0.02 0.01
90°
Feb 21, 13:39 59.59767° -151.82845° 8 min 0.02 0.01
90°
Feb 21, 13:31 59.59767° -151.82848° 2 min 0.02 0.02
146°
Feb 21, 13:29 59.59768° -151.82849° 8 min 0.02 0.01
53°
Feb 21, 13:21 59.59767° -151.82852° 2 min 0.02 0.02
180°
Feb 21, 13:19 59.59768° -151.82852° 8 min 0.02 0.01
270°
Feb 21, 13:11 59.59768° -151.82848° 2 min 0.02 0.04
270°
Feb 21, 13:09 59.59768° -151.82843° 8 min 0.02 0.01
161°
Feb 21, 13:01 59.59770° -151.82845° 2 min 0.02 0.01
270°
Feb 21, 12:59 59.59770° -151.82843° 8 min 0.02 0.00
Feb 21, 12:51 59.59770° -151.82843° 2 min 0.02 0.06
250°
Feb 21, 12:49 59.59771° -151.82837° 8 min 0.02 0.05
227°
Feb 21, 12:41 59.59779° -151.82822° 2 min 0.02 0.06
193°
Feb 21, 12:39 59.59782° -151.82820° 8 min 0.01 0.11
189°
Feb 21, 12:31 59.59806° -151.82813° 2 min 0.01 0.10
164°
Feb 21, 12:29 59.59812° -151.82816° 8 min 0.01 0.06
162°
Feb 21, 12:21 59.59824° -151.82823° 2 min 0.01 0.03
90°
Feb 21, 12:19 59.59824° -151.82826° 8 min 0.01 0.03
122°
Feb 21, 12:11 59.59827° -151.82837° 2 min 0.01 0.02
180°
Feb 21, 12:09 59.59828° -151.82837° 8 min 0.02 0.03
116°
Feb 21, 12:01 59.59831° -151.82849° 1 min 0.02 0.05
146°
Feb 21, 11:59 59.59834° -151.82852° 8 min 0.02 0.02
270°
Feb 21, 11:51 59.59834° -151.82843° 2 min 0.02 0.04
158°
Feb 21, 11:49 59.59835° -151.82845° 8 min 0.02 0.00
Feb 21, 11:41 59.59835° -151.82845° 2 min 0.02 0.04
338°
Feb 21, 11:39 59.59834° -151.82843° 8 min 0.02 0.02
135°
Feb 21, 11:31 59.59837° -151.82849° 2 min 0.02 0.05
146°
Feb 21, 11:29 59.59839° -151.82852° 8 min 0.02 0.01
Feb 21, 11:21 59.59837° -151.82852° 2 min 0.02 0.04
161°
Feb 21, 11:19 59.59839° -151.82854° 8 min 0.02 0.01
146°
Feb 21, 11:11 59.59840° -151.82855° 2 min 0.02 0.00
Feb 21, 11:09 59.59840° -151.82855° 8 min 0.02 0.01
180°
Feb 21, 11:01 59.59842° -151.82855° 2 min 0.02 0.02
214°
Feb 21, 10:59 59.59843° -151.82854° 8 min 0.02 0.01
90°
Feb 21, 10:51 59.59843° -151.82858° 2 min 0.02 0.00
Feb 21, 10:49 59.59843° -151.82858° 8 min 0.02 0.00
Feb 21, 10:41 59.59843° -151.82858° 2 min 0.02 0.04
180°
Feb 21, 10:39 59.59845° -151.82858° 8 min 0.03 0.00
Feb 21, 10:31 59.59845° -151.82858° 2 min 0.03 0.03
244°
Feb 21, 10:29 59.59846° -151.82855° 8 min 0.03 0.01
64°
Feb 21, 10:21 59.59845° -151.82858° 2 min 0.03 0.01
90°
Feb 21, 10:19 59.59845° -151.82860° 8 min 0.03 0.00
225°
Feb 21, 10:11 59.59846° -151.82858° 2 min 0.03 0.02
45°
Feb 21, 10:09 59.59845° -151.82860° 8 min 0.03 0.01
252°
Feb 21, 10:01 59.59846° -151.82855° 2 min 0.03 0.05
214°
Feb 21, 09:59 59.59848° -151.82852° 8 min 0.03 0.02
53°
Feb 21, 09:51 59.59846° -151.82858° 2 min 0.03 0.05
214°
Feb 21, 09:49 59.59848° -151.82855° 8 min 0.03 0.00
270°
Feb 21, 09:41 59.59848° -151.82854° 2 min 0.03 0.04
19°
Feb 21, 09:39 59.59846° -151.82855° 8 min 0.03 0.02
121°
Feb 21, 09:31 59.59848° -151.82863° 2 min 0.03 0.05
326°
Feb 21, 09:29 59.59846° -151.82860° 8 min 0.03 0.02
127°
Feb 21, 09:21 59.59848° -151.82866° 2 min 0.03 0.03
270°
Feb 21, 09:19 59.59848° -151.82863° 8 min 0.03 0.00
Feb 21, 09:11 59.59848° -151.82863° 2 min 0.03 0.01
90°
Feb 21, 09:09 59.59848° -151.82864° 8 min 0.03 0.01
214°
Feb 21, 09:01 59.59850° -151.82863° 2 min 0.03 0.03
307°
Feb 21, 08:59 59.59848° -151.82860° 8 min 0.03 0.00
Feb 21, 08:51 59.59848° -151.82860° 1 min 0.03 0.02
180°
Feb 21, 08:49 59.59850° -151.82860° 8 min 0.03 0.00
Feb 21, 08:41 59.59850° -151.82860° 2 min 0.03 0.03
53°
Feb 21, 08:39 59.59848° -151.82863° 8 min 0.03 0.01
244°
Feb 21, 08:31 59.59850° -151.82858° 2 min 0.03 0.04
90°
Feb 21, 08:29 59.59850° -151.82863° 8 min 0.03 0.01
270°
Feb 21, 08:21 59.59850° -151.82858° 2 min 0.03 0.03
270°
Feb 21, 08:19 59.59850° -151.82855° 8 min 0.03 0.00
Feb 21, 08:11 59.59850° -151.82855° 2 min 0.03 0.00
Feb 21, 08:09 59.59850° -151.82855° 8 min 0.03 0.01
219°
Feb 21, 08:01 59.59851° -151.82852° 2 min 0.03 0.00
Feb 21, 07:59 59.59851° -151.82852° 8 min 0.03 0.00
Feb 21, 07:51 59.59851° -151.82852° 2 min 0.03 0.03
Feb 21, 07:49 59.59850° -151.82852° 8 min 0.03 0.01
219°
Feb 21, 07:41 59.59851° -151.82849° 2 min 0.03 0.01
270°
Feb 21, 07:39 59.59851° -151.82848° 8 min 0.03 0.00
90°
Feb 21, 07:31 59.59851° -151.82849° 2 min 0.03 0.03
Feb 21, 07:29 59.59850° -151.82849° 8 min 0.03 0.00
Feb 21, 07:21 59.59850° -151.82849° 2 min 0.03 0.01
270°
Feb 21, 07:19 59.59850° -151.82848° 8 min 0.03 0.00
90°
Feb 21, 07:11 59.59850° -151.82849° 2 min 0.03 0.00
Feb 21, 07:09 59.59850° -151.82849° 8 min 0.03 0.01
296°
Feb 21, 07:01 59.59848° -151.82845° 2 min 0.03 0.01
270°
Feb 21, 06:59 59.59848° -151.82843° 8 min 0.03 0.01
Feb 21, 06:51 59.59846° -151.82843° 2 min 0.03 0.04
180°
Feb 21, 06:49 59.59848° -151.82843° 8 min 0.03 0.01
315°
Feb 21, 06:41 59.59846° -151.82838° 2 min 0.03 0.04
90°
Feb 21, 06:39 59.59846° -151.82843° 8 min 0.03 0.00
315°
Feb 21, 06:31 59.59845° -151.82841° 2 min 0.03 0.00
Feb 21, 06:29 59.59845° -151.82841° 8 min 0.03 0.01
326°
Feb 21, 06:21 59.59843° -151.82838° 2 min 0.02 0.02
326°
Feb 21, 06:19 59.59842° -151.82837° 8 min 0.02 0.00
Feb 21, 06:11 59.59842° -151.82837° 2 min 0.02 0.03
Feb 21, 06:09 59.59840° -151.82837° 8 min 0.02 0.02
284°
Feb 21, 06:01 59.59839° -151.82828° 2 min 0.02 0.03
90°
Feb 21, 05:59 59.59839° -151.82831° 8 min 0.02 0.02
296°
Feb 21, 05:51 59.59837° -151.82822° 2 min 0.02 0.05
296°
Feb 21, 05:49 59.59835° -151.82817° 8 min 0.02 0.00
270°
Feb 21, 05:41 59.59835° -151.82816° 2 min 0.02 0.03
270°
Feb 21, 05:39 59.59835° -151.82813° 7 min 0.02 0.02
324°
Feb 21, 05:31 59.59831° -151.82806° 2 min 0.02 0.02
326°
Feb 21, 05:29 59.59830° -151.82805° 8 min 0.02 0.02
292°
Feb 21, 05:21 59.59828° -151.82796° 2 min 0.02 0.02
Feb 21, 05:19 59.59827° -151.82796° 8 min 0.02 0.02
347°
Feb 21, 05:11 59.59824° -151.82794° 2 min 0.02 0.03
270°
Feb 21, 05:09 59.59824° -151.82791° 8 min 0.02 0.01
90°
Feb 21, 05:01 59.59824° -151.82794° 2 min 0.02 0.06
333°
Feb 21, 04:59 59.59821° -151.82791° 8 min 0.02 0.04
336°
Feb 21, 04:51 59.59812° -151.82784° 2 min 0.02 0.03
Feb 21, 04:49 59.59810° -151.82784° 8 min 0.02 0.02
326°
Feb 21, 04:41 59.59806° -151.82779° 2 min 0.02 0.10
Feb 21, 04:39 59.59801° -151.82780° 8 min 0.02 0.02
Feb 21, 04:31 59.59797° -151.82780° 2 min 0.02 0.01
270°
Feb 21, 04:29 59.59797° -151.82779° 8 min 0.02 0.02
Feb 21, 04:21 59.59792° -151.82780° 2 min 0.02 0.07
233°
Feb 21, 04:19 59.59794° -151.82774° 8 min 0.02 0.05
32°
Feb 21, 04:11 59.59785° -151.82785° 2 min 0.02 0.02
214°
Feb 21, 04:09 59.59786° -151.82784° 8 min 0.02 0.02
36°
Feb 21, 04:01 59.59782° -151.82790° 2 min 0.02 0.04
19°
Feb 21, 03:59 59.59780° -151.82791° 8 min 0.02 0.03
43°
Feb 21, 03:51 59.59776° -151.82799° 2 min 0.02 0.04
Feb 21, 03:49 59.59773° -151.82799° 8 min 0.02 0.00
Feb 21, 03:41 59.59773° -151.82799° 2 min 0.02 0.04
161°
Feb 21, 03:39 59.59776° -151.82800° 8 min 0.02 0.03
30°
Feb 21, 03:31 59.59770° -151.82806° 2 min 0.02 0.04
Feb 21, 03:29 59.59768° -151.82806° 8 min 0.02 0.01
90°
Feb 21, 03:21 59.59768° -151.82813° 2 min 0.02 0.05
214°
Feb 21, 03:19 59.59770° -151.82809° 8 min 0.02 0.02
13°
Feb 21, 03:11 59.59767° -151.82811° 2 min 0.02 0.04
90°
Feb 21, 03:09 59.59767° -151.82816° 8 min 0.02 0.01
Feb 21, 03:01 59.59765° -151.82816° 2 min 0.02 0.01
90°
Feb 21, 02:59 59.59765° -151.82817° 8 min 0.02 0.00
Feb 21, 02:51 59.59765° -151.82817° 2 min 0.02 0.03
180°
Feb 21, 02:49 59.59767° -151.82817° 8 min 0.02 0.02
37°
Feb 21, 02:41 59.59764° -151.82822° 2 min 0.02 0.01
90°
Feb 21, 02:39 59.59764° -151.82823° 8 min 0.02 0.01
45°
Feb 21, 02:31 59.59761° -151.82828° 2 min 0.03 0.00
Feb 21, 02:29 59.59761° -151.82828° 8 min 0.03 0.01
64°
Feb 21, 02:21 59.59760° -151.82832° 1 min 0.03 0.02
180°
Feb 21, 02:19 59.59761° -151.82832° 8 min 0.03 0.00
90°
Feb 21, 02:11 59.59761° -151.82834° 2 min 0.03 0.03
90°
Feb 21, 02:09 59.59761° -151.82837° 8 min 0.03 0.01
90°
Feb 21, 02:01 59.59761° -151.82841° 2 min 0.03 0.02
34°
Feb 21, 01:59 59.59760° -151.82843° 8 min 0.03 0.00
90°
Feb 21, 01:51 59.59760° -151.82845° 2 min 0.03 0.02
180°
Feb 21, 01:49 59.59761° -151.82845° 8 min 0.03 0.02
76°
Feb 21, 01:41 59.59760° -151.82854° 2 min 0.03 0.02
214°
Feb 21, 01:39 59.59761° -151.82852° 8 min 0.03 0.02
90°
Feb 21, 01:31 59.59761° -151.82860° 2 min 0.03 0.03
90°
Feb 21, 01:29 59.59761° -151.82863° 8 min 0.03 0.03
110°
Feb 21, 01:21 59.59764° -151.82875° 2 min 0.03 0.04
Feb 21, 01:19 59.59761° -151.82875° 8 min 0.03 0.02
116°
Feb 21, 01:11 59.59764° -151.82884° 2 min 0.03 0.00
Feb 21, 01:09 59.59764° -151.82884° 8 min 0.03 0.01
45°
Feb 21, 01:01 59.59761° -151.82889° 2 min 0.03 0.07
127°
Feb 21, 00:59 59.59764° -151.82895° 8 min 0.03 0.02
107°
Feb 21, 00:51 59.59765° -151.82903° 2 min 0.03 0.03
180°
Feb 21, 00:49 59.59767° -151.82903° 8 min 0.03 0.01
180°
Feb 21, 00:41 59.59768° -151.82903° 2 min 0.03 0.09
132°
Feb 21, 00:39 59.59771° -151.82910° 8 min 0.03 0.02
180°
Feb 21, 00:31 59.59776° -151.82910° 2 min 0.03 0.00
Feb 21, 00:29 59.59776° -151.82910° 8 min 0.03 0.01
166°
Feb 21, 00:21 59.59779° -151.82912° 2 min 0.03 0.04
22°
Feb 21, 00:19 59.59777° -151.82913° 8 min 0.03 0.03
157°
Feb 21, 00:11 59.59782° -151.82918° 2 min 0.03 0.01
180°
Feb 21, 00:09 59.59783° -151.82918° 8 min 0.03 0.00
270°
Feb 21, 00:01 59.59783° -151.82916° 2 min 0.03 0.01
90°
Feb 20, 23:59 59.59783° -151.82918° 8 min 0.03 0.05
148°
Feb 20, 23:51 59.59792° -151.82928° 2 min 0.03 0.01
270°
Feb 20, 23:49 59.59792° -151.82927° 8 min 0.03 0.03
155°
Feb 20, 23:41 59.59798° -151.82933° 2 min 0.03 0.00
Feb 20, 23:39 59.59798° -151.82933° 8 min 0.03 0.02
180°
Feb 20, 23:31 59.59803° -151.82933° 2 min 0.03 0.05
180°
Feb 20, 23:29 59.59806° -151.82933° 8 min 0.03 0.01
Feb 20, 23:21 59.59803° -151.82933° 2 min 0.03 0.01
270°
Feb 20, 23:19 59.59803° -151.82932° 7 min 0.03 0.02
172°
Feb 20, 23:11 59.59809° -151.82933° 2 min 0.03 0.00
Feb 20, 23:09 59.59809° -151.82933° 8 min 0.03 0.01
180°
Feb 20, 23:01 59.59812° -151.82933° 2 min 0.03 0.02
214°
Feb 20, 22:59 59.59813° -151.82932° 8 min 0.03 0.01
180°
Feb 20, 22:51 59.59815° -151.82932° 2 min 0.03 0.01
90°
Feb 20, 22:49 59.59815° -151.82933° 8 min 0.03 0.00
270°
Feb 20, 22:41 59.59815° -151.82932° 2 min 0.03 0.01
90°
Feb 20, 22:39 59.59815° -151.82933° 8 min 0.03 0.02
217°
Feb 20, 22:31 59.59818° -151.82928° 2 min 0.03 0.04
90°
Feb 20, 22:29 59.59818° -151.82933° 8 min 0.03 0.02
180°
Feb 20, 22:21 59.59822° -151.82933° 2 min 0.03 0.02
Feb 20, 22:19 59.59821° -151.82933° 8 min 0.03 0.01
180°
Feb 20, 22:11 59.59822° -151.82933° 2 min 0.03 0.01
270°
Feb 20, 22:09 59.59822° -151.82932° 8 min 0.03 0.02
244°
Feb 20, 22:01 59.59824° -151.82924° 2 min 0.03 0.03
90°
Feb 20, 21:59 59.59824° -151.82927° 8 min 0.03 0.02
204°
Feb 20, 21:51 59.59827° -151.82924° 2 min 0.03 0.00
Feb 20, 21:49 59.59827° -151.82924° 8 min 0.03 0.01
194°
Feb 20, 21:41 59.59830° -151.82922° 2 min 0.03 0.04
22°
Feb 20, 21:39 59.59828° -151.82924° 8 min 0.03 0.01
194°
Feb 20, 21:31 59.59831° -151.82922° 2 min 0.03 0.06
225°
Feb 20, 21:29 59.59834° -151.82918° 8 min 0.03 0.01
180°
Feb 20, 21:21 59.59835° -151.82918° 2 min 0.03 0.00
Feb 20, 21:19 59.59835° -151.82918° 8 min 0.03 0.00
Feb 20, 21:11 59.59835° -151.82918° 2 min 0.03 0.02
180°
Feb 20, 21:09 59.59837° -151.82918° 8 min 0.03 0.01
199°
Feb 20, 21:01 59.59839° -151.82916° 2 min 0.03 0.03
270°
Feb 20, 20:59 59.59839° -151.82913° 8 min 0.03 0.01
Feb 20, 20:51 59.59837° -151.82913° 2 min 0.03 0.05
214°
Feb 20, 20:49 59.59839° -151.82910° 8 min 0.03 0.01
180°
Feb 20, 20:41 59.59840° -151.82910° 2 min 0.03 0.00
Feb 20, 20:39 59.59840° -151.82910° 8 min 0.03 0.00
Feb 20, 20:31 59.59840° -151.82910° 2 min 0.03 0.03
270°
Feb 20, 20:29 59.59840° -151.82907° 8 min 0.03 0.01
202°
Feb 20, 20:21 59.59842° -151.82906° 2 min 0.03 0.03
Feb 20, 20:19 59.59840° -151.82906° 8 min 0.03 0.01
129°
Feb 20, 20:11 59.59842° -151.82910° 2 min 0.03 0.03
Feb 20, 20:09 59.59840° -151.82910° 8 min 0.03 0.01
270°
Feb 20, 20:01 59.59840° -151.82907° 1 min 0.03 0.03
90°
Feb 20, 19:59 59.59840° -151.82910° 8 min 0.03 0.00
Feb 20, 19:51 59.59840° -151.82910° 2 min 0.03 0.01
90°
Feb 20, 19:49 59.59840° -151.82912° 8 min 0.03 0.02
238°
Feb 20, 19:41 59.59842° -151.82906° 2 min 0.03 0.00
Feb 20, 19:39 59.59842° -151.82906° 8 min 0.03 0.01
Feb 20, 19:31 59.59840° -151.82906° 2 min 0.03 0.00
Feb 20, 19:29 59.59840° -151.82906° 8 min 0.03 0.00
Feb 20, 19:21 59.59840° -151.82906° 2 min 0.03 0.04
219°
Feb 20, 19:19 59.59842° -151.82903° 8 min 0.03 0.01
51°
Feb 20, 19:11 59.59840° -151.82907° 2 min 0.03 0.07
238°
Feb 20, 19:09 59.59842° -151.82901° 8 min 0.03 0.00
90°
Feb 20, 19:01 59.59842° -151.82903° 2 min 0.03 0.01
270°
Feb 20, 18:59 59.59842° -151.82901° 8 min 0.03 0.01
22°
Feb 20, 18:51 59.59840° -151.82903° 2 min 0.03 0.00
Feb 20, 18:49 59.59840° -151.82903° 8 min 0.03 0.00
Feb 20, 18:41 59.59840° -151.82903° 2 min 0.03 0.00
Feb 20, 18:39 59.59840° -151.82903° 8 min 0.03 0.01
Feb 20, 18:31 59.59839° -151.82903° 2 min 0.03 0.00
Feb 20, 18:29 59.59839° -151.82903° 8 min 0.03 0.01
Feb 20, 18:21 59.59837° -151.82903° 2 min 0.03 0.03
90°
Feb 20, 18:19 59.59837° -151.82906° 8 min 0.03 0.01
90°
Feb 20, 18:11 59.59837° -151.82910° 2 min 0.03 0.07
270°
Feb 20, 18:09 59.59837° -151.82903° 8 min 0.03 0.01
53°
Feb 20, 18:01 59.59835° -151.82906° 2 min 0.03 0.01
90°
Feb 20, 17:59 59.59835° -151.82907° 8 min 0.03 0.00
270°
Feb 20, 17:51 59.59835° -151.82906° 2 min 0.03 0.04
321°
Feb 20, 17:49 59.59834° -151.82903° 8 min 0.03 0.01
Feb 20, 17:41 59.59831° -151.82903° 2 min 0.02 0.07
90°
Feb 20, 17:39 59.59831° -151.82910° 8 min 0.03 0.01
Feb 20, 17:31 59.59830° -151.82910° 2 min 0.03 0.03
Feb 20, 17:29 59.59828° -151.82910° 8 min 0.02 0.01
270°
Feb 20, 17:21 59.59828° -151.82907° 2 min 0.02 0.03
53°
Feb 20, 17:19 59.59827° -151.82910° 8 min 0.02 0.00
Feb 20, 17:11 59.59827° -151.82910° 2 min 0.02 0.01
90°
Feb 20, 17:09 59.59827° -151.82912° 8 min 0.02 0.02
Feb 20, 17:01 59.59822° -151.82913° 2 min 0.02 0.04
90°
Feb 20, 16:59 59.59822° -151.82918° 8 min 0.02 0.02
24°
Feb 20, 16:51 59.59818° -151.82921° 2 min 0.02 0.00
Feb 20, 16:49 59.59818° -151.82921° 8 min 0.02 0.04
10°
Feb 20, 16:41 59.59810° -151.82924° 1 min 0.02 0.06
Feb 20, 16:39 59.59806° -151.82924° 8 min 0.02 0.08
350°
Feb 20, 16:31 59.59789° -151.82918° 2 min 0.02 0.07
326°
Feb 20, 16:29 59.59785° -151.82913° 8 min 0.02 0.03
330°
Feb 20, 16:21 59.59780° -151.82907° 2 min 0.02 0.04
270°
Feb 20, 16:19 59.59780° -151.82903° 8 min 0.02 0.03
329°
Feb 20, 16:11 59.59773° -151.82895° 2 min 0.02 0.04
270°
Feb 20, 16:09 59.59773° -151.82890° 8 min 0.02 0.01
309°
Feb 20, 16:01 59.59771° -151.82886° 2 min 0.02 0.05
296°
Feb 20, 15:59 59.59770° -151.82881° 8 min 0.02 0.02
312°
Feb 20, 15:51 59.59767° -151.82874° 2 min 0.02 0.06
180°
Feb 20, 15:49 59.59770° -151.82874° 8 min 0.02 0.03
324°
Feb 20, 15:41 59.59765° -151.82866° 2 min 0.02 0.04
141°
Feb 20, 15:39 59.59767° -151.82869° 8 min 0.02 0.04
284°
Feb 20, 15:31 59.59765° -151.82854° 2 min 0.02 0.08
90°
Feb 20, 15:29 59.59765° -151.82863° 8 min 0.02 0.04
102°
Feb 20, 15:21 59.59767° -151.82881° 2 min 0.02 0.08
296°
Feb 20, 15:19 59.59765° -151.82874° 8 min 0.02 0.04
112°
Feb 20, 15:11 59.59768° -151.82889° 2 min 0.03 0.03
307°
Feb 20, 15:09 59.59767° -151.82886° 8 min 0.03 0.01
270°
Feb 20, 15:01 59.59767° -151.82880° 2 min 0.02 0.05
309°
Feb 20, 14:59 59.59765° -151.82875° 8 min 0.02 0.02
122°
Feb 20, 14:51 59.59767° -151.82881° 2 min 0.02 0.04
90°
Feb 20, 14:49 59.59767° -151.82886° 8 min 0.03 0.00
270°
Feb 20, 14:41 59.59767° -151.82884° 2 min 0.03 0.05
116°
Feb 20, 14:39 59.59768° -151.82889° 8 min 0.03 0.03
116°
Feb 20, 14:31 59.59771° -151.82903° 2 min 0.03 0.08
318°
Feb 20, 14:29 59.59768° -151.82896° 8 min 0.03 0.01
146°
Feb 20, 14:21 59.59770° -151.82899° 2 min 0.03 0.06
315°
Feb 20, 14:19 59.59768° -151.82895° 8 min 0.03 0.01
90°
Feb 20, 14:11 59.59768° -151.82901° 2 min 0.03 0.09
284°
Feb 20, 14:09 59.59767° -151.82892° 8 min 0.03 0.02
146°
Feb 20, 14:01 59.59770° -151.82896° 2 min 0.03 0.06
315°
Feb 20, 13:59 59.59768° -151.82892° 8 min 0.03 0.01
135°
Feb 20, 13:51 59.59770° -151.82896° 2 min 0.03 0.08
90°
Feb 20, 13:49 59.59770° -151.82906° 8 min 0.03 0.01
180°
Feb 20, 13:41 59.59771° -151.82906° 1 min 0.03 0.04
158°
Feb 20, 13:39 59.59773° -151.82907° 8 min 0.03 0.01
Feb 20, 13:31 59.59771° -151.82907° 2 min 0.03 0.09
151°
Feb 20, 13:29 59.59776° -151.82912° 8 min 0.03 0.01
116°
Feb 20, 13:21 59.59777° -151.82916° 2 min 0.03 0.06
290°
Feb 20, 13:19 59.59776° -151.82910° 8 min 0.03 0.01
326°
Feb 20, 13:11 59.59773° -151.82907° 2 min 0.03 0.01
270°
Feb 20, 13:09 59.59773° -151.82906° 8 min 0.03 0.02
138°
Feb 20, 13:01 59.59777° -151.82912° 2 min 0.03 0.07
143°
Feb 20, 12:59 59.59780° -151.82916° 8 min 0.03 0.01
161°
Feb 20, 12:51 59.59782° -151.82918° 2 min 0.03 0.06
153°
Feb 20, 12:49 59.59785° -151.82921° 8 min 0.03 0.02
156°
Feb 20, 12:41 59.59789° -151.82924° 2 min 0.03 0.03
180°
Feb 20, 12:39 59.59790° -151.82924° 8 min 0.03 0.03
160°
Feb 20, 12:31 59.59797° -151.82928° 2 min 0.03 0.08
160°
Feb 20, 12:29 59.59801° -151.82932° 8 min 0.03 0.04
191°
Feb 20, 12:21 59.59809° -151.82928° 2 min 0.03 0.04
Feb 20, 12:19 59.59806° -151.82928° 8 min 0.03 0.01
199°
Feb 20, 12:11 59.59809° -151.82927° 2 min 0.03 0.03
233°
Feb 20, 12:09 59.59810° -151.82924° 8 min 0.02 0.03
193°
Feb 20, 12:01 59.59816° -151.82921° 2 min 0.02 0.00
Feb 20, 11:59 59.59816° -151.82921° 8 min 0.02 0.02
209°
Feb 20, 11:51 59.59821° -151.82916° 2 min 0.02 0.03
270°
Feb 20, 11:49 59.59821° -151.82913° 8 min 0.02 0.01
233°
Feb 20, 11:41 59.59822° -151.82910° 2 min 0.02 0.03
180°
Feb 20, 11:39 59.59824° -151.82910° 8 min 0.02 0.00
Feb 20, 11:31 59.59824° -151.82910° 2 min 0.02 0.02
180°
Feb 20, 11:29 59.59825° -151.82910° 8 min 0.02 0.01
214°
Feb 20, 11:21 59.59827° -151.82907° 2 min 0.02 0.01
270°
Feb 20, 11:19 59.59827° -151.82906° 8 min 0.02 0.01
180°
Feb 20, 11:11 59.59830° -151.82906° 2 min 0.02 0.01
90°
Feb 20, 11:09 59.59830° -151.82907° 8 min 0.02 0.01
244°
Feb 20, 11:01 59.59831° -151.82903° 2 min 0.02 0.03
90°
Feb 20, 10:59 59.59831° -151.82906° 8 min 0.02 0.01
214°
Feb 20, 10:51 59.59834° -151.82903° 2 min 0.03 0.03
180°
Feb 20, 10:49 59.59835° -151.82903° 8 min 0.03 0.00
Feb 20, 10:41 59.59835° -151.82903° 2 min 0.03 0.00
Feb 20, 10:39 59.59835° -151.82903° 8 min 0.03 0.02
156°
Feb 20, 10:31 59.59839° -151.82906° 2 min 0.03 0.05
326°
Feb 20, 10:29 59.59837° -151.82903° 8 min 0.03 0.01
180°
Feb 20, 10:21 59.59839° -151.82903° 1 min 0.03 0.02
180°
Feb 20, 10:19 59.59840° -151.82903° 8 min 0.03 0.00
270°
Feb 20, 10:11 59.59840° -151.82901° 2 min 0.03 0.01
270°
Feb 20, 10:09 59.59840° -151.82899° 8 min 0.03 0.01
180°
Feb 20, 10:01 59.59842° -151.82899° 2 min 0.03 0.03
90°
Feb 20, 09:59 59.59842° -151.82903° 8 min 0.03 0.01
270°
Feb 20, 09:51 59.59842° -151.82899° 2 min 0.03 0.03
270°
Feb 20, 09:49 59.59842° -151.82896° 8 min 0.03 0.00
Feb 20, 09:41 59.59842° -151.82896° 2 min 0.03 0.03
90°
Feb 20, 09:39 59.59842° -151.82899° 8 min 0.03 0.01
244°
Feb 20, 09:31 59.59843° -151.82895° 2 min 0.03 0.03
270°
Feb 20, 09:29 59.59843° -151.82892° 8 min 0.03 0.01
199°
Feb 20, 09:21 59.59845° -151.82890° 2 min 0.03 0.00
Feb 20, 09:19 59.59845° -151.82890° 8 min 0.03 0.00
270°
Feb 20, 09:11 59.59845° -151.82889° 2 min 0.03 0.00
Feb 20, 09:09 59.59845° -151.82889° 8 min 0.03 0.02
217°
Feb 20, 09:01 59.59848° -151.82884° 2 min 0.03 0.04
Feb 20, 08:59 59.59846° -151.82884° 8 min 0.03 0.01
270°
Feb 20, 08:51 59.59846° -151.82881° 2 min 0.03 0.01
270°
Feb 20, 08:49 59.59846° -151.82880° 8 min 0.03 0.00
90°
Feb 20, 08:41 59.59846° -151.82881° 2 min 0.03 0.04
180°
Feb 20, 08:39 59.59848° -151.82881° 8 min 0.03 0.00
Feb 20, 08:31 59.59848° -151.82881° 2 min 0.03 0.03
90°
Feb 20, 08:29 59.59848° -151.82884° 8 min 0.03 0.01
270°
Feb 20, 08:21 59.59848° -151.82881° 2 min 0.03 0.03
90°
Feb 20, 08:19 59.59848° -151.82884° 8 min 0.03 0.00
Feb 20, 08:11 59.59848° -151.82884° 2 min 0.03 0.01
90°
Feb 20, 08:09 59.59848° -151.82886° 8 min 0.03 0.01
270°
Feb 20, 08:01 59.59848° -151.82881° 2 min 0.03 0.02
180°
Feb 20, 07:59 59.59850° -151.82881° 8 min 0.03 0.00
Feb 20, 07:51 59.59850° -151.82881° 2 min 0.03 0.03
270°
Feb 20, 07:49 59.59850° -151.82878° 8 min 0.03 0.01
141°
Feb 20, 07:41 59.59851° -151.82881° 2 min 0.03 0.04
39°
Feb 20, 07:39 59.59850° -151.82884° 8 min 0.03 0.00
Feb 20, 07:31 59.59850° -151.82884° 2 min 0.03 0.04
90°
Feb 20, 07:29 59.59850° -151.82889° 8 min 0.03 0.01
53°
Feb 20, 07:21 59.59848° -151.82892° 2 min 0.03 0.04
Feb 20, 07:19 59.59846° -151.82892° 8 min 0.03 0.00
270°
Feb 20, 07:11 59.59846° -151.82890° 2 min 0.03 0.04
161°
Feb 20, 07:09 59.59848° -151.82892° 8 min 0.03 0.01
341°
Feb 20, 07:01 59.59846° -151.82890° 1 min 0.03 0.02
315°
Feb 20, 06:59 59.59845° -151.82889° 8 min 0.03 0.00
Feb 20, 06:51 59.59845° -151.82889° 2 min 0.03 0.05
34°
Feb 20, 06:49 59.59843° -151.82892° 8 min 0.03 0.00
Feb 20, 06:41 59.59843° -151.82892° 2 min 0.03 0.03
270°
Feb 20, 06:39 59.59843° -151.82889° 8 min 0.03 0.01
90°
Feb 20, 06:31 59.59843° -151.82892° 2 min 0.03 0.03
270°
Feb 20, 06:29 59.59843° -151.82889° 8 min 0.03 0.01
161°
Feb 20, 06:21 59.59845° -151.82890° 2 min 0.03 0.04
19°
Feb 20, 06:19 59.59843° -151.82892° 8 min 0.03 0.01
199°
Feb 20, 06:11 59.59845° -151.82890° 2 min 0.03 0.01
90°
Feb 20, 06:09 59.59845° -151.82892° 8 min 0.03 0.01
90°
Feb 20, 06:01 59.59845° -151.82895° 2 min 0.03 0.07
326°
Feb 20, 05:59 59.59842° -151.82890° 8 min 0.03 0.00
Feb 20, 05:51 59.59842° -151.82890° 2 min 0.03 0.03
Feb 20, 05:49 59.59840° -151.82890° 8 min 0.03 0.00
90°
Feb 20, 05:41 59.59840° -151.82892° 2 min 0.03 0.03
270°
Feb 20, 05:39 59.59840° -151.82889° 8 min 0.03 0.02
73°
Feb 20, 05:31 59.59839° -151.82896° 2 min 0.03 0.04
341°
Feb 20, 05:29 59.59837° -151.82895° 8 min 0.03 0.01
161°
Feb 20, 05:21 59.59839° -151.82896° 2 min 0.03 0.05
34°
Feb 20, 05:19 59.59837° -151.82899° 8 min 0.03 0.01
225°
Feb 20, 05:11 59.59839° -151.82895° 2 min 0.03 0.04
Feb 20, 05:09 59.59837° -151.82895° 8 min 0.03 0.01
270°
Feb 20, 05:01 59.59837° -151.82892° 2 min 0.02 0.04
180°
Feb 20, 04:59 59.59839° -151.82892° 8 min 0.03 0.01
270°
Feb 20, 04:51 59.59839° -151.82889° 2 min 0.03 0.06
Feb 20, 04:49 59.59835° -151.82889° 8 min 0.02 0.00
90°
Feb 20, 04:41 59.59835° -151.82890° 2 min 0.02 0.00
Feb 20, 04:39 59.59835° -151.82890° 8 min 0.02 0.05
58°
Feb 20, 04:31 59.59830° -151.82907° 2 min 0.02 0.04
39°
Feb 20, 04:29 59.59828° -151.82910° 8 min 0.02 0.02
10°
Feb 20, 04:21 59.59824° -151.82912° 2 min 0.02 0.07
58°
Feb 20, 04:19 59.59822° -151.82918° 8 min 0.02 0.03
30°
Feb 20, 04:11 59.59816° -151.82924° 2 min 0.03 0.06
Feb 20, 04:09 59.59813° -151.82924° 7 min 0.02 0.07
15°
Feb 20, 04:01 59.59798° -151.82932° 2 min 0.03 0.07
Feb 20, 03:59 59.59794° -151.82932° 7 min 0.03 0.08
327°
Feb 20, 03:51 59.59780° -151.82913° 2 min 0.03 0.06
290°
Feb 20, 03:49 59.59779° -151.82907° 8 min 0.02 0.06
312°
Feb 20, 03:41 59.59770° -151.82889° 2 min 0.02 0.00
Feb 20, 03:39 59.59770° -151.82889° 8 min 0.02 0.03
296°
Feb 20, 03:31 59.59767° -151.82875° 2 min 0.02 0.04
338°
Feb 20, 03:29 59.59765° -151.82874° 8 min 0.02 0.02
270°
Feb 20, 03:21 59.59765° -151.82864° 2 min 0.02 0.05
296°
Feb 20, 03:19 59.59764° -151.82860° 8 min 0.02 0.01
270°
Feb 20, 03:11 59.59764° -151.82855° 2 min 0.02 0.03
270°
Feb 20, 03:09 59.59764° -151.82852° 8 min 0.02 0.00
Feb 20, 03:01 59.59764° -151.82852° 2 min 0.02 0.03
233°
Feb 20, 02:59 59.59765° -151.82849° 8 min 0.02 0.02
76°
Feb 20, 02:51 59.59764° -151.82858° 2 min 0.02 0.02
146°
Feb 20, 02:49 59.59765° -151.82860° 8 min 0.02 0.01
326°
Feb 20, 02:41 59.59764° -151.82858° 2 min 0.02 0.02
180°
Feb 20, 02:39 59.59765° -151.82858° 8 min 0.02 0.01
Feb 20, 02:31 59.59764° -151.82858° 2 min 0.02 0.00
Feb 20, 02:29 59.59764° -151.82858° 8 min 0.02 0.00
Feb 20, 02:21 59.59764° -151.82858° 2 min 0.02 0.01
90°
Feb 20, 02:19 59.59764° -151.82860° 8 min 0.02 0.00
Feb 20, 02:11 59.59764° -151.82860° 2 min 0.02 0.01
270°
Feb 20, 02:09 59.59764° -151.82858° 8 min 0.02 0.01
19°
Feb 20, 02:01 59.59761° -151.82860° 2 min 0.03 0.01
270°
Feb 20, 01:59 59.59761° -151.82858° 8 min 0.03 0.00
90°
Feb 20, 01:51 59.59761° -151.82860° 2 min 0.03 0.04
180°
Feb 20, 01:49 59.59764° -151.82860° 8 min 0.02 0.01
Feb 20, 01:41 59.59761° -151.82860° 2 min 0.03 0.01
270°
Feb 20, 01:39 59.59761° -151.82858° 8 min 0.03 0.01
90°
Feb 20, 01:31 59.59761° -151.82863° 2 min 0.03 0.01
90°
Feb 20, 01:29 59.59761° -151.82864° 8 min 0.03 0.00
90°
Feb 20, 01:21 59.59761° -151.82866° 2 min 0.03 0.02
Feb 20, 01:19 59.59760° -151.82866° 8 min 0.03 0.00
Feb 20, 01:11 59.59760° -151.82866° 2 min 0.03 0.03
90°
Feb 20, 01:09 59.59760° -151.82869° 8 min 0.03 0.00
90°
Feb 20, 01:01 59.59760° -151.82870° 2 min 0.03 0.03
90°
Feb 20, 00:59 59.59760° -151.82874° 8 min 0.03 0.00
Feb 20, 00:51 59.59760° -151.82874° 2 min 0.03 0.01
90°
Feb 20, 00:49 59.59760° -151.82875° 8 min 0.03 0.01
180°
Feb 20, 00:41 59.59761° -151.82875° 1 min 0.03 0.05
146°
Feb 20, 00:39 59.59764° -151.82878° 8 min 0.03 0.00
Feb 20, 00:31 59.59764° -151.82878° 1 min 0.03 0.03
90°
Feb 20, 00:29 59.59764° -151.82881° 8 min 0.03 0.01
180°
Feb 20, 00:21 59.59765° -151.82881° 2 min 0.03 0.02
Feb 20, 00:19 59.59764° -151.82881° 8 min 0.03 0.01
180°
Feb 20, 00:11 59.59767° -151.82881° 2 min 0.02 0.03
Feb 20, 00:09 59.59765° -151.82881° 8 min 0.03 0.01
180°
Feb 20, 00:01 59.59767° -151.82881° 2 min 0.02 0.03
127°
Feb 19, 23:59 59.59768° -151.82884° 8 min 0.02 0.01
90°
Feb 19, 23:51 59.59768° -151.82889° 2 min 0.03 0.07
270°
Feb 19, 23:49 59.59768° -151.82881° 8 min 0.02 0.02
121°
Feb 19, 23:41 59.59770° -151.82889° 2 min 0.02 0.00
Feb 19, 23:39 59.59770° -151.82889° 8 min 0.02 0.01
90°
Feb 19, 23:31 59.59770° -151.82895° 2 min 0.03 0.03
233°
Feb 19, 23:29 59.59771° -151.82892° 8 min 0.02 0.01
129°
Feb 19, 23:21 59.59773° -151.82896° 2 min 0.02 0.01
270°
Feb 19, 23:19 59.59773° -151.82895° 8 min 0.02 0.02
127°
Feb 19, 23:11 59.59776° -151.82901° 2 min 0.02 0.00
Feb 19, 23:09 59.59776° -151.82901° 8 min 0.02 0.01
166°
Feb 19, 23:01 59.59779° -151.82903° 2 min 0.02 0.04
90°
Feb 19, 22:59 59.59779° -151.82907° 8 min 0.02 0.02
146°
Feb 19, 22:51 59.59782° -151.82912° 2 min 0.02 0.02
225°
Feb 19, 22:49 59.59783° -151.82910° 8 min 0.02 0.02
127°
Feb 19, 22:41 59.59785° -151.82916° 2 min 0.02 0.06
167°
Feb 19, 22:39 59.59789° -151.82918° 8 min 0.02 0.03
153°
Feb 19, 22:31 59.59795° -151.82924° 2 min 0.02 0.04
180°
Feb 19, 22:29 59.59797° -151.82924° 8 min 0.02 0.02
180°
Feb 19, 22:21 59.59801° -151.82924° 2 min 0.02 0.09
199°
Feb 19, 22:19 59.59806° -151.82921° 8 min 0.02 0.02
200°
Feb 19, 22:11 59.59810° -151.82918° 2 min 0.02 0.05
129°
Feb 19, 22:09 59.59812° -151.82922° 8 min 0.02 0.02
207°
Feb 19, 22:01 59.59816° -151.82918° 2 min 0.02 0.03
180°
Feb 19, 21:59 59.59818° -151.82918° 8 min 0.02 0.02
188°
Feb 19, 21:51 59.59824° -151.82916° 2 min 0.02 0.00
Feb 19, 21:49 59.59824° -151.82916° 8 min 0.02 0.01
270°
Feb 19, 21:41 59.59824° -151.82913° 2 min 0.02 0.02
180°
Feb 19, 21:39 59.59825° -151.82913° 8 min 0.02 0.00
270°
Feb 19, 21:31 59.59825° -151.82912° 2 min 0.02 0.06
193°
Feb 19, 21:29 59.59828° -151.82910° 7 min 0.02 0.01
270°
Feb 19, 21:21 59.59828° -151.82907° 2 min 0.02 0.00
Feb 19, 21:19 59.59828° -151.82907° 8 min 0.02 0.01
231°
Feb 19, 21:11 59.59830° -151.82903° 2 min 0.02 0.00
Feb 19, 21:09 59.59830° -151.82903° 8 min 0.02 0.02
253°
Feb 19, 21:01 59.59831° -151.82895° 2 min 0.02 0.02
Feb 19, 20:59 59.59830° -151.82895° 8 min 0.02 0.01
180°
Feb 19, 20:51 59.59831° -151.82895° 2 min 0.02 0.01
90°
Feb 19, 20:49 59.59831° -151.82896° 8 min 0.02 0.01
180°
Feb 19, 20:41 59.59834° -151.82896° 2 min 0.02 0.00
Feb 19, 20:39 59.59834° -151.82896° 8 min 0.02 0.00
270°
Feb 19, 20:31 59.59834° -151.82895° 2 min 0.02 0.04
158°
Feb 19, 20:29 59.59835° -151.82896° 8 min 0.02 0.01
90°
Feb 19, 20:21 59.59835° -151.82901° 2 min 0.03 0.04
338°
Feb 19, 20:19 59.59834° -151.82899° 8 min 0.02 0.01
180°
Feb 19, 20:11 59.59835° -151.82899° 2 min 0.03 0.01
90°
Feb 19, 20:09 59.59835° -151.82901° 8 min 0.03 0.01
22°
Feb 19, 20:01 59.59834° -151.82903° 2 min 0.03 0.00
Feb 19, 19:59 59.59834° -151.82903° 8 min 0.03 0.01
219°
Feb 19, 19:51 59.59835° -151.82899° 2 min 0.03 0.00
Feb 19, 19:49 59.59835° -151.82899° 8 min 0.03 0.01
90°
Feb 19, 19:41 59.59835° -151.82906° 2 min 0.03 0.04
270°
Feb 19, 19:39 59.59835° -151.82901° 8 min 0.03 0.00
Feb 19, 19:31 59.59835° -151.82901° 2 min 0.03 0.00
Feb 19, 19:29 59.59835° -151.82901° 8 min 0.03 0.01
51°
Feb 19, 19:21 59.59834° -151.82906° 2 min 0.03 0.04
219°
Feb 19, 19:19 59.59835° -151.82903° 8 min 0.03 0.01
Feb 19, 19:11 59.59834° -151.82903° 2 min 0.03 0.03
90°
Feb 19, 19:09 59.59834° -151.82906° 8 min 0.03 0.01
219°
Feb 19, 19:01 59.59835° -151.82903° 2 min 0.03 0.00
Feb 19, 18:59 59.59835° -151.82903° 8 min 0.03 0.00
Feb 19, 18:51 59.59835° -151.82903° 2 min 0.03 0.01
270°
Feb 19, 18:49 59.59835° -151.82901° 8 min 0.03 0.01
338°
Feb 19, 18:41 59.59834° -151.82899° 2 min 0.02 0.04
158°
Feb 19, 18:39 59.59835° -151.82901° 8 min 0.03 0.01
270°
Feb 19, 18:31 59.59835° -151.82895° 2 min 0.02 0.02
180°
Feb 19, 18:29 59.59837° -151.82895° 8 min 0.03 0.01
Feb 19, 18:21 59.59834° -151.82895° 2 min 0.02 0.00
Feb 19, 18:19 59.59834° -151.82895° 8 min 0.02 0.01
219°
Feb 19, 18:11 59.59835° -151.82892° 1 min 0.02 0.03
Feb 19, 18:09 59.59834° -151.82892° 8 min 0.02 0.01
219°
Feb 19, 18:01 59.59835° -151.82889° 2 min 0.02 0.00
Feb 19, 17:59 59.59835° -151.82889° 8 min 0.02 0.01
Feb 19, 17:51 59.59834° -151.82889° 2 min 0.02 0.00
Feb 19, 17:49 59.59834° -151.82889° 8 min 0.02 0.00
Feb 19, 17:41 59.59834° -151.82889° 2 min 0.02 0.04
Feb 19, 17:39 59.59831° -151.82889° 8 min 0.02 0.01
180°
Feb 19, 17:31 59.59834° -151.82889° 2 min 0.02 0.00
Feb 19, 17:29 59.59834° -151.82889° 8 min 0.02 0.01
270°
Feb 19, 17:21 59.59834° -151.82886° 2 min 0.02 0.04
270°
Feb 19, 17:19 59.59834° -151.82881° 8 min 0.02 0.02
59°
Feb 19, 17:11 59.59831° -151.82889° 2 min 0.02 0.07
270°
Feb 19, 17:09 59.59831° -151.82881° 8 min 0.02 0.01
64°
Feb 19, 17:01 59.59830° -151.82886° 2 min 0.02 0.03
90°
Feb 19, 16:59 59.59830° -151.82889° 8 min 0.02 0.00
Feb 19, 16:51 59.59830° -151.82889° 2 min 0.02 0.00
Feb 19, 16:49 59.59830° -151.82889° 8 min 0.02 0.01
22°
Feb 19, 16:41 59.59828° -151.82890° 2 min 0.02 0.01
270°
Feb 19, 16:39 59.59828° -151.82889° 8 min 0.02 0.01
180°
Feb 19, 16:31 59.59830° -151.82889° 2 min 0.02 0.00
Feb 19, 16:29 59.59830° -151.82889° 8 min 0.02 0.04
52°
Feb 19, 16:21 59.59825° -151.82903° 2 min 0.02 0.03
90°
Feb 19, 16:19 59.59825° -151.82906° 8 min 0.02 0.02
Feb 19, 16:11 59.59821° -151.82906° 2 min 0.02 0.01
90°
Feb 19, 16:09 59.59821° -151.82907° 8 min 0.02 0.04
35°
Feb 19, 16:01 59.59813° -151.82918° 2 min 0.02 0.02
Feb 19, 15:59 59.59812° -151.82918° 8 min 0.02 0.04
Feb 19, 15:51 59.59803° -151.82918° 2 min 0.02 0.10
352°
Feb 19, 15:49 59.59798° -151.82916° 8 min 0.02 0.05
318°
Feb 19, 15:41 59.59790° -151.82903° 2 min 0.02 0.03
Feb 19, 15:39 59.59789° -151.82903° 8 min 0.02 0.05
305°
Feb 19, 15:31 59.59782° -151.82884° 2 min 0.02 0.05
326°
Feb 19, 15:29 59.59780° -151.82881° 8 min 0.02 0.04
292°
Feb 19, 15:21 59.59777° -151.82866° 2 min 0.02 0.09
312°
Feb 19, 15:19 59.59773° -151.82858° 8 min 0.02 0.02
270°
Feb 19, 15:11 59.59773° -151.82848° 2 min 0.02 0.00
Feb 19, 15:09 59.59773° -151.82848° 8 min 0.02 0.01
309°
Feb 19, 15:01 59.59771° -151.82843° 1 min 0.02 0.00
Feb 19, 14:59 59.59771° -151.82843° 8 min 0.02 0.01
270°
Feb 19, 14:51 59.59771° -151.82837° 2 min 0.02 0.00
Feb 19, 14:49 59.59771° -151.82837° 8 min 0.02 0.01
90°
Feb 19, 14:41 59.59771° -151.82841° 2 min 0.02 0.03
270°
Feb 19, 14:39 59.59771° -151.82838° 8 min 0.02 0.00
270°
Feb 19, 14:31 59.59771° -151.82837° 2 min 0.02 0.00
Feb 19, 14:29 59.59771° -151.82837° 8 min 0.02 0.01
Feb 19, 14:21 59.59770° -151.82837° 2 min 0.02 0.00
Feb 19, 14:19 59.59770° -151.82837° 8 min 0.02 0.01
Feb 19, 14:11 59.59768° -151.82837° 2 min 0.02 0.00
Feb 19, 14:09 59.59768° -151.82837° 8 min 0.02 0.01
270°
Feb 19, 14:01 59.59768° -151.82834° 2 min 0.02 0.04
199°
Feb 19, 13:59 59.59770° -151.82832° 8 min 0.02 0.00
Feb 19, 13:51 59.59770° -151.82832° 2 min 0.02 0.01
270°
Feb 19, 13:49 59.59770° -151.82831° 8 min 0.02 0.01
270°
Feb 19, 13:41 59.59770° -151.82826° 2 min 0.02 0.00
Feb 19, 13:39 59.59770° -151.82826° 8 min 0.02 0.01
270°
Feb 19, 13:31 59.59770° -151.82823° 2 min 0.02 0.00
Feb 19, 13:29 59.59770° -151.82823° 8 min 0.02 0.01
90°
Feb 19, 13:21 59.59770° -151.82826° 2 min 0.02 0.03
270°
Feb 19, 13:19 59.59770° -151.82823° 8 min 0.02 0.01
90°
Feb 19, 13:11 59.59770° -151.82826° 2 min 0.02 0.03
270°
Feb 19, 13:09 59.59770° -151.82823° 8 min 0.02 0.00
Feb 19, 13:01 59.59770° -151.82823° 2 min 0.02 0.00
Feb 19, 12:59 59.59770° -151.82823° 8 min 0.02 0.00
Feb 19, 12:51 59.59770° -151.82823° 2 min 0.02 0.03
90°
Feb 19, 12:49 59.59770° -151.82826° 8 min 0.02 0.00
Feb 19, 12:41 59.59770° -151.82826° 2 min 0.02 0.00
Feb 19, 12:39 59.59770° -151.82826° 8 min 0.02 0.01
244°
Feb 19, 12:31 59.59771° -151.82822° 2 min 0.02 0.00
Feb 19, 12:29 59.59771° -151.82822° 8 min 0.02 0.00
Feb 19, 12:21 59.59771° -151.82822° 2 min 0.02 0.00
Feb 19, 12:19 59.59771° -151.82822° 8 min 0.02 0.01
180°
Feb 19, 12:11 59.59773° -151.82822° 2 min 0.02 0.03
Feb 19, 12:09 59.59771° -151.82822° 8 min 0.02 0.01
158°
Feb 19, 12:01 59.59773° -151.82823° 2 min 0.02 0.04
180°
Feb 19, 11:59 59.59776° -151.82823° 8 min 0.02 0.00
Feb 19, 11:51 59.59776° -151.82823° 1 min 0.02 0.04
Feb 19, 11:49 59.59773° -151.82823° 8 min 0.02 0.01
199°
Feb 19, 11:41 59.59776° -151.82822° 2 min 0.02 0.01
90°
Feb 19, 11:39 59.59776° -151.82823° 8 min 0.02 0.01
214°
Feb 19, 11:31 59.59777° -151.82822° 2 min 0.02 0.00
Feb 19, 11:29 59.59777° -151.82822° 8 min 0.02 0.01
158°
Feb 19, 11:21 59.59779° -151.82823° 2 min 0.02 0.00
Feb 19, 11:19 59.59779° -151.82823° 8 min 0.02 0.02
193°
Feb 19, 11:11 59.59782° -151.82822° 2 min 0.01 0.00
Feb 19, 11:09 59.59782° -151.82822° 8 min 0.01 0.02
217°
Feb 19, 11:01 59.59785° -151.82817° 2 min 0.01 0.01
270°
Feb 19, 10:59 59.59785° -151.82816° 8 min 0.01 0.02
180°
Feb 19, 10:51 59.59789° -151.82816° 2 min 0.01 0.03
270°
Feb 19, 10:49 59.59789° -151.82813° 8 min 0.01 0.04
185°
Feb 19, 10:41 59.59797° -151.82811° 2 min 0.01 0.06
180°
Feb 19, 10:39 59.59800° -151.82811° 8 min 0.01 0.04
165°
Feb 19, 10:31 59.59809° -151.82816° 2 min 0.01 0.02
146°
Feb 19, 10:29 59.59810° -151.82817° 8 min 0.01 0.04
160°
Feb 19, 10:21 59.59818° -151.82823° 2 min 0.01 0.05
146°
Feb 19, 10:19 59.59821° -151.82826° 8 min 0.01 0.02
143°
Feb 19, 10:11 59.59824° -151.82831° 2 min 0.01 0.01
90°
Feb 19, 10:09 59.59824° -151.82832° 8 min 0.01 0.02
138°
Feb 19, 10:01 59.59827° -151.82838° 2 min 0.01 0.03
127°
Feb 19, 09:59 59.59828° -151.82841° 8 min 0.01 0.00
90°
Feb 19, 09:51 59.59828° -151.82843° 2 min 0.01 0.00
Feb 19, 09:49 59.59828° -151.82843° 8 min 0.01 0.02
135°
Feb 19, 09:41 59.59831° -151.82849° 2 min 0.02 0.00
Feb 19, 09:39 59.59831° -151.82849° 8 min 0.02 0.01
146°
Feb 19, 09:31 59.59834° -151.82852° 2 min 0.02 0.03
90°
Feb 19, 09:29 59.59834° -151.82855° 8 min 0.02 0.01
129°
Feb 19, 09:21 59.59835° -151.82860° 2 min 0.02 0.01
270°
Feb 19, 09:19 59.59835° -151.82858° 8 min 0.02 0.00
Feb 19, 09:11 59.59835° -151.82858° 2 min 0.02 0.01
90°
Feb 19, 09:09 59.59835° -151.82860° 8 min 0.02 0.01
116°
Feb 19, 09:01 59.59837° -151.82864° 2 min 0.02 0.00
Feb 19, 08:59 59.59837° -151.82864° 8 min 0.02 0.01
161°
Feb 19, 08:51 59.59839° -151.82866° 2 min 0.02 0.00
Feb 19, 08:49 59.59839° -151.82866° 8 min 0.02 0.00
Feb 19, 08:41 59.59839° -151.82866° 2 min 0.02 0.04
90°
Feb 19, 08:39 59.59839° -151.82870° 8 min 0.02 0.00
270°
Feb 19, 08:31 59.59839° -151.82869° 1 min 0.02 0.00
Feb 19, 08:29 59.59839° -151.82869° 8 min 0.02 0.00
Feb 19, 08:21 59.59839° -151.82869° 2 min 0.02 0.00
Feb 19, 08:19 59.59839° -151.82869° 8 min 0.02 0.01
233°
Feb 19, 08:11 59.59840° -151.82866° 2 min 0.02 0.03
90°
Feb 19, 08:09 59.59840° -151.82869° 8 min 0.02 0.00
Feb 19, 08:01 59.59840° -151.82869° 2 min 0.02 0.00
Feb 19, 07:59 59.59840° -151.82869° 8 min 0.02 0.01
219°
Feb 19, 07:51 59.59842° -151.82866° 2 min 0.02 0.00
Feb 19, 07:49 59.59842° -151.82866° 8 min 0.02 0.00
Feb 19, 07:41 59.59842° -151.82866° 2 min 0.02 0.00
Feb 19, 07:39 59.59842° -151.82866° 8 min 0.02 0.01
127°
Feb 19, 07:31 59.59843° -151.82869° 2 min 0.02 0.01
90°
Feb 19, 07:29 59.59843° -151.82870° 8 min 0.03 0.01
90°
Feb 19, 07:21 59.59843° -151.82874° 2 min 0.03 0.00
Feb 19, 07:19 59.59843° -151.82874° 8 min 0.03 0.01
180°
Feb 19, 07:11 59.59845° -151.82874° 2 min 0.03 0.00
Feb 19, 07:09 59.59845° -151.82874° 8 min 0.03 0.02
53°
Feb 19, 07:01 59.59843° -151.82880° 2 min 0.03 0.00
Feb 19, 06:59 59.59843° -151.82880° 8 min 0.03 0.01
326°
Feb 19, 06:51 59.59842° -151.82878° 2 min 0.03 0.00
Feb 19, 06:49 59.59842° -151.82878° 8 min 0.03 0.01
270°
Feb 19, 06:41 59.59842° -151.82875° 2 min 0.02 0.04
39°
Feb 19, 06:39 59.59840° -151.82878° 8 min 0.02 0.02
232°
Feb 19, 06:31 59.59843° -151.82870° 2 min 0.03 0.03
90°
Feb 19, 06:29 59.59843° -151.82874° 8 min 0.03 0.01
270°
Feb 19, 06:21 59.59843° -151.82870° 2 min 0.03 0.00
Feb 19, 06:19 59.59843° -151.82870° 8 min 0.03 0.01
53°
Feb 19, 06:11 59.59842° -151.82874° 2 min 0.02 0.00
Feb 19, 06:09 59.59842° -151.82874° 8 min 0.02 0.00
Feb 19, 06:01 59.59842° -151.82874° 2 min 0.02 0.01
90°
Feb 19, 05:59 59.59842° -151.82875° 8 min 0.02 0.00
270°
Feb 19, 05:51 59.59842° -151.82874° 2 min 0.02 0.00
Feb 19, 05:49 59.59842° -151.82874° 8 min 0.02 0.02
308°
Feb 19, 05:41 59.59839° -151.82866° 2 min 0.02 0.00
Feb 19, 05:39 59.59839° -151.82866° 7 min 0.02 0.01
270°
Feb 19, 05:31 59.59839° -151.82863° 2 min 0.02 0.03
90°
Feb 19, 05:29 59.59839° -151.82866° 8 min 0.02 0.01
270°
Feb 19, 05:21 59.59839° -151.82863° 2 min 0.02 0.01
90°
Feb 19, 05:19 59.59839° -151.82864° 8 min 0.02 0.01
341°
Feb 19, 05:11 59.59837° -151.82863° 2 min 0.02 0.03
90°
Feb 19, 05:09 59.59837° -151.82866° 8 min 0.02 0.00
Feb 19, 05:01 59.59837° -151.82866° 2 min 0.02 0.00
Feb 19, 04:59 59.59837° -151.82866° 8 min 0.02 0.00
Feb 19, 04:51 59.59837° -151.82866°